sensor_id;sensor_type;location;lat;lon;timestamp;P1;durP1;ratioP1;P2;durP2;ratioP2
6638;SDS011;3355;52.882;8.430;2023-11-18T00:00:17;15.13;;;9.63;;
6638;SDS011;3355;52.882;8.430;2023-11-18T00:02:52;10.80;;;9.70;;
6638;SDS011;3355;52.882;8.430;2023-11-18T00:05:18;11.90;;;9.77;;
6638;SDS011;3355;52.882;8.430;2023-11-18T00:07:47;11.83;;;9.47;;
6638;SDS011;3355;52.882;8.430;2023-11-18T00:10:13;16.20;;;10.30;;
6638;SDS011;3355;52.882;8.430;2023-11-18T00:12:40;12.07;;;10.43;;
6638;SDS011;3355;52.882;8.430;2023-11-18T00:15:07;12.37;;;9.90;;
6638;SDS011;3355;52.882;8.430;2023-11-18T00:17:35;13.17;;;10.50;;
6638;SDS011;3355;52.882;8.430;2023-11-18T00:20:02;13.80;;;9.40;;
6638;SDS011;3355;52.882;8.430;2023-11-18T00:22:34;13.53;;;9.47;;
6638;SDS011;3355;52.882;8.430;2023-11-18T00:25:02;12.43;;;9.40;;
6638;SDS011;3355;52.882;8.430;2023-11-18T00:27:30;12.20;;;9.50;;
6638;SDS011;3355;52.882;8.430;2023-11-18T00:29:57;16.40;;;11.00;;
6638;SDS011;3355;52.882;8.430;2023-11-18T00:32:23;14.47;;;10.20;;
6638;SDS011;3355;52.882;8.430;2023-11-18T00:34:50;19.00;;;10.00;;
6638;SDS011;3355;52.882;8.430;2023-11-18T00:37:16;14.57;;;10.33;;
6638;SDS011;3355;52.882;8.430;2023-11-18T00:39:43;13.90;;;10.87;;
6638;SDS011;3355;52.882;8.430;2023-11-18T00:42:11;11.23;;;9.20;;
6638;SDS011;3355;52.882;8.430;2023-11-18T00:44:38;22.77;;;10.53;;
6638;SDS011;3355;52.882;8.430;2023-11-18T00:47:06;13.83;;;10.60;;
6638;SDS011;3355;52.882;8.430;2023-11-18T00:49:33;20.73;;;10.87;;
6638;SDS011;3355;52.882;8.430;2023-11-18T00:51:59;18.37;;;11.93;;
6638;SDS011;3355;52.882;8.430;2023-11-18T00:54:26;19.47;;;11.17;;
6638;SDS011;3355;52.882;8.430;2023-11-18T00:56:53;17.07;;;11.73;;
6638;SDS011;3355;52.882;8.430;2023-11-18T00:59:21;23.33;;;10.80;;
6638;SDS011;3355;52.882;8.430;2023-11-18T01:01:47;17.73;;;11.17;;
6638;SDS011;3355;52.882;8.430;2023-11-18T01:04:14;19.33;;;11.67;;
6638;SDS011;3355;52.882;8.430;2023-11-18T01:06:42;15.60;;;10.90;;
6638;SDS011;3355;52.882;8.430;2023-11-18T01:09:08;30.40;;;12.87;;
6638;SDS011;3355;52.882;8.430;2023-11-18T01:11:35;47.03;;;13.40;;
6638;SDS011;3355;52.882;8.430;2023-11-18T01:14:02;23.40;;;11.93;;
6638;SDS011;3355;52.882;8.430;2023-11-18T01:16:30;25.73;;;12.80;;
6638;SDS011;3355;52.882;8.430;2023-11-18T01:18:56;39.37;;;13.27;;
6638;SDS011;3355;52.882;8.430;2023-11-18T01:21:23;22.10;;;12.03;;
6638;SDS011;3355;52.882;8.430;2023-11-18T01:23:50;30.67;;;10.30;;
6638;SDS011;3355;52.882;8.430;2023-11-18T01:26:16;27.93;;;10.70;;
6638;SDS011;3355;52.882;8.430;2023-11-18T01:28:43;30.67;;;11.37;;
6638;SDS011;3355;52.882;8.430;2023-11-18T01:31:11;36.50;;;11.00;;
6638;SDS011;3355;52.882;8.430;2023-11-18T01:33:40;18.23;;;10.40;;
6638;SDS011;3355;52.882;8.430;2023-11-18T01:36:07;20.00;;;9.90;;
6638;SDS011;3355;52.882;8.430;2023-11-18T01:38:34;33.60;;;9.23;;
6638;SDS011;3355;52.882;8.430;2023-11-18T01:41:02;31.50;;;10.23;;
6638;SDS011;3355;52.882;8.430;2023-11-18T01:43:30;16.00;;;8.93;;
6638;SDS011;3355;52.882;8.430;2023-11-18T01:45:57;21.10;;;9.83;;
6638;SDS011;3355;52.882;8.430;2023-11-18T01:48:27;27.67;;;9.80;;
6638;SDS011;3355;52.882;8.430;2023-11-18T01:50:56;24.20;;;9.00;;
6638;SDS011;3355;52.882;8.430;2023-11-18T01:53:23;21.30;;;8.60;;
6638;SDS011;3355;52.882;8.430;2023-11-18T01:55:50;21.73;;;8.60;;
6638;SDS011;3355;52.882;8.430;2023-11-18T01:58:17;16.97;;;8.03;;
6638;SDS011;3355;52.882;8.430;2023-11-18T02:00:45;14.93;;;8.50;;
6638;SDS011;3355;52.882;8.430;2023-11-18T02:03:12;30.80;;;9.67;;
6638;SDS011;3355;52.882;8.430;2023-11-18T02:05:38;19.73;;;8.57;;
6638;SDS011;3355;52.882;8.430;2023-11-18T02:08:08;15.70;;;9.57;;
6638;SDS011;3355;52.882;8.430;2023-11-18T02:10:38;30.37;;;9.77;;
6638;SDS011;3355;52.882;8.430;2023-11-18T02:13:18;32.00;;;8.90;;
6638;SDS011;3355;52.882;8.430;2023-11-18T02:15:52;33.17;;;10.07;;
6638;SDS011;3355;52.882;8.430;2023-11-18T02:18:22;40.17;;;9.67;;
6638;SDS011;3355;52.882;8.430;2023-11-18T02:20:50;27.80;;;9.33;;
6638;SDS011;3355;52.882;8.430;2023-11-18T02:23:19;41.67;;;10.43;;
6638;SDS011;3355;52.882;8.430;2023-11-18T02:25:48;57.37;;;11.10;;
6638;SDS011;3355;52.882;8.430;2023-11-18T02:28:15;42.63;;;10.47;;
6638;SDS011;3355;52.882;8.430;2023-11-18T02:30:41;41.73;;;11.00;;
6638;SDS011;3355;52.882;8.430;2023-11-18T02:33:11;59.77;;;11.77;;
6638;SDS011;3355;52.882;8.430;2023-11-18T02:35:45;68.20;;;12.13;;
6638;SDS011;3355;52.882;8.430;2023-11-18T02:38:15;83.90;;;11.97;;
6638;SDS011;3355;52.882;8.430;2023-11-18T02:40:44;47.67;;;12.00;;
6638;SDS011;3355;52.882;8.430;2023-11-18T02:43:14;72.37;;;13.20;;
6638;SDS011;3355;52.882;8.430;2023-11-18T02:45:42;85.17;;;15.07;;
6638;SDS011;3355;52.882;8.430;2023-11-18T02:48:09;43.90;;;11.10;;
6638;SDS011;3355;52.882;8.430;2023-11-18T02:50:35;43.93;;;10.60;;
6638;SDS011;3355;52.882;8.430;2023-11-18T02:53:03;55.87;;;11.57;;
6638;SDS011;3355;52.882;8.430;2023-11-18T02:55:30;42.67;;;10.90;;
6638;SDS011;3355;52.882;8.430;2023-11-18T02:57:56;44.50;;;11.13;;
6638;SDS011;3355;52.882;8.430;2023-11-18T03:00:24;46.20;;;11.53;;
6638;SDS011;3355;52.882;8.430;2023-11-18T03:02:51;57.57;;;11.43;;
6638;SDS011;3355;52.882;8.430;2023-11-18T03:05:18;53.73;;;12.60;;
6638;SDS011;3355;52.882;8.430;2023-11-18T03:07:44;55.07;;;11.30;;
6638;SDS011;3355;52.882;8.430;2023-11-18T03:10:14;37.60;;;10.70;;
6638;SDS011;3355;52.882;8.430;2023-11-18T03:12:47;27.93;;;10.23;;
6638;SDS011;3355;52.882;8.430;2023-11-18T03:15:14;19.53;;;9.87;;
6638;SDS011;3355;52.882;8.430;2023-11-18T03:17:43;55.47;;;11.30;;
6638;SDS011;3355;52.882;8.430;2023-11-18T03:20:11;23.47;;;10.97;;
6638;SDS011;3355;52.882;8.430;2023-11-18T03:22:41;22.17;;;10.07;;
6638;SDS011;3355;52.882;8.430;2023-11-18T03:25:08;66.63;;;11.10;;
6638;SDS011;3355;52.882;8.430;2023-11-18T03:27:35;55.23;;;12.23;;
6638;SDS011;3355;52.882;8.430;2023-11-18T03:30:02;23.43;;;9.60;;
6638;SDS011;3355;52.882;8.430;2023-11-18T03:32:31;33.50;;;11.20;;
6638;SDS011;3355;52.882;8.430;2023-11-18T03:34:59;23.43;;;10.43;;
6638;SDS011;3355;52.882;8.430;2023-11-18T03:37:25;21.43;;;10.17;;
6638;SDS011;3355;52.882;8.430;2023-11-18T03:39:52;16.77;;;10.20;;
6638;SDS011;3355;52.882;8.430;2023-11-18T03:42:19;18.17;;;10.27;;
6638;SDS011;3355;52.882;8.430;2023-11-18T03:44:47;31.87;;;11.20;;
6638;SDS011;3355;52.882;8.430;2023-11-18T03:47:13;15.33;;;9.40;;
6638;SDS011;3355;52.882;8.430;2023-11-18T03:49:40;23.27;;;10.27;;
6638;SDS011;3355;52.882;8.430;2023-11-18T03:52:08;17.80;;;9.80;;
6638;SDS011;3355;52.882;8.430;2023-11-18T03:54:34;21.13;;;10.53;;
6638;SDS011;3355;52.882;8.430;2023-11-18T03:57:01;24.83;;;11.97;;
6638;SDS011;3355;52.882;8.430;2023-11-18T03:59:28;19.87;;;10.30;;
6638;SDS011;3355;52.882;8.430;2023-11-18T04:01:54;15.87;;;10.47;;
6638;SDS011;3355;52.882;8.430;2023-11-18T04:04:21;25.00;;;10.93;;
6638;SDS011;3355;52.882;8.430;2023-11-18T04:06:47;23.20;;;12.03;;
6638;SDS011;3355;52.882;8.430;2023-11-18T04:09:15;23.00;;;11.33;;
6638;SDS011;3355;52.882;8.430;2023-11-18T04:11:42;11.20;;;9.97;;
6638;SDS011;3355;52.882;8.430;2023-11-18T04:14:10;17.80;;;11.17;;
6638;SDS011;3355;52.882;8.430;2023-11-18T04:16:36;10.97;;;9.83;;
6638;SDS011;3355;52.882;8.430;2023-11-18T04:19:04;26.97;;;12.33;;
6638;SDS011;3355;52.882;8.430;2023-11-18T04:21:31;14.70;;;11.10;;
6638;SDS011;3355;52.882;8.430;2023-11-18T04:23:58;20.97;;;10.40;;
6638;SDS011;3355;52.882;8.430;2023-11-18T04:26:26;32.17;;;11.13;;
6638;SDS011;3355;52.882;8.430;2023-11-18T04:28:52;32.70;;;12.47;;
6638;SDS011;3355;52.882;8.430;2023-11-18T04:31:19;18.23;;;10.93;;
6638;SDS011;3355;52.882;8.430;2023-11-18T04:33:46;19.80;;;11.10;;
6638;SDS011;3355;52.882;8.430;2023-11-18T04:36:13;27.03;;;10.70;;
6638;SDS011;3355;52.882;8.430;2023-11-18T04:38:41;21.97;;;10.50;;
6638;SDS011;3355;52.882;8.430;2023-11-18T04:41:08;30.93;;;12.33;;
6638;SDS011;3355;52.882;8.430;2023-11-18T04:43:36;20.23;;;10.83;;
6638;SDS011;3355;52.882;8.430;2023-11-18T04:46:04;34.13;;;11.43;;
6638;SDS011;3355;52.882;8.430;2023-11-18T04:48:31;72.87;;;15.27;;
6638;SDS011;3355;52.882;8.430;2023-11-18T04:50:58;26.30;;;13.13;;
6638;SDS011;3355;52.882;8.430;2023-11-18T04:53:26;48.90;;;13.07;;
6638;SDS011;3355;52.882;8.430;2023-11-18T04:55:53;34.17;;;12.30;;
6638;SDS011;3355;52.882;8.430;2023-11-18T04:58:20;34.30;;;12.70;;
6638;SDS011;3355;52.882;8.430;2023-11-18T05:00:48;22.57;;;11.50;;
6638;SDS011;3355;52.882;8.430;2023-11-18T05:03:15;22.53;;;11.40;;
6638;SDS011;3355;52.882;8.430;2023-11-18T05:05:42;29.33;;;14.20;;
6638;SDS011;3355;52.882;8.430;2023-11-18T05:08:17;31.43;;;13.00;;
6638;SDS011;3355;52.882;8.430;2023-11-18T05:10:46;28.20;;;12.57;;
6638;SDS011;3355;52.882;8.430;2023-11-18T05:13:12;36.20;;;12.70;;
6638;SDS011;3355;52.882;8.430;2023-11-18T05:15:41;36.77;;;13.07;;
6638;SDS011;3355;52.882;8.430;2023-11-18T05:18:11;45.00;;;13.10;;
6638;SDS011;3355;52.882;8.430;2023-11-18T05:20:39;24.87;;;12.30;;
6638;SDS011;3355;52.882;8.430;2023-11-18T05:23:06;22.60;;;12.00;;
6638;SDS011;3355;52.882;8.430;2023-11-18T05:25:35;40.60;;;13.03;;
6638;SDS011;3355;52.882;8.430;2023-11-18T05:28:02;79.20;;;14.33;;
6638;SDS011;3355;52.882;8.430;2023-11-18T05:30:30;29.17;;;11.80;;
6638;SDS011;3355;52.882;8.430;2023-11-18T05:32:57;54.60;;;15.43;;
6638;SDS011;3355;52.882;8.430;2023-11-18T05:35:25;66.13;;;14.90;;
6638;SDS011;3355;52.882;8.430;2023-11-18T05:37:53;59.40;;;15.20;;
6638;SDS011;3355;52.882;8.430;2023-11-18T05:40:20;50.10;;;13.37;;
6638;SDS011;3355;52.882;8.430;2023-11-18T05:42:47;69.23;;;16.07;;
6638;SDS011;3355;52.882;8.430;2023-11-18T05:45:17;49.27;;;15.40;;
6638;SDS011;3355;52.882;8.430;2023-11-18T05:47:53;37.43;;;13.03;;
6638;SDS011;3355;52.882;8.430;2023-11-18T05:50:20;33.00;;;15.17;;
6638;SDS011;3355;52.882;8.430;2023-11-18T05:52:48;24.90;;;12.90;;
6638;SDS011;3355;52.882;8.430;2023-11-18T05:55:14;38.23;;;14.30;;
6638;SDS011;3355;52.882;8.430;2023-11-18T05:57:41;40.67;;;15.10;;
6638;SDS011;3355;52.882;8.430;2023-11-18T06:00:10;43.50;;;14.80;;
6638;SDS011;3355;52.882;8.430;2023-11-18T06:02:40;52.60;;;15.30;;
6638;SDS011;3355;52.882;8.430;2023-11-18T06:05:07;38.23;;;13.97;;
6638;SDS011;3355;52.882;8.430;2023-11-18T06:07:37;47.60;;;13.30;;
6638;SDS011;3355;52.882;8.430;2023-11-18T06:10:07;25.23;;;13.90;;
6638;SDS011;3355;52.882;8.430;2023-11-18T06:12:34;31.47;;;13.50;;
6638;SDS011;3355;52.882;8.430;2023-11-18T06:15:02;22.40;;;12.90;;
6638;SDS011;3355;52.882;8.430;2023-11-18T06:17:29;16.07;;;11.33;;
6638;SDS011;3355;52.882;8.430;2023-11-18T06:19:56;84.77;;;15.27;;
6638;SDS011;3355;52.882;8.430;2023-11-18T06:22:23;36.67;;;15.10;;
6638;SDS011;3355;52.882;8.430;2023-11-18T06:24:50;38.50;;;14.57;;
6638;SDS011;3355;52.882;8.430;2023-11-18T06:27:19;50.13;;;14.93;;
6638;SDS011;3355;52.882;8.430;2023-11-18T06:29:48;37.37;;;13.70;;
6638;SDS011;3355;52.882;8.430;2023-11-18T06:32:15;40.17;;;14.07;;
6638;SDS011;3355;52.882;8.430;2023-11-18T06:34:42;42.23;;;14.20;;
6638;SDS011;3355;52.882;8.430;2023-11-18T06:37:08;39.83;;;13.60;;
6638;SDS011;3355;52.882;8.430;2023-11-18T06:39:35;69.30;;;16.10;;
6638;SDS011;3355;52.882;8.430;2023-11-18T06:42:09;47.40;;;16.30;;
6638;SDS011;3355;52.882;8.430;2023-11-18T06:44:38;42.63;;;15.30;;
6638;SDS011;3355;52.882;8.430;2023-11-18T06:47:04;34.40;;;15.57;;
6638;SDS011;3355;52.882;8.430;2023-11-18T06:49:31;48.50;;;16.87;;
6638;SDS011;3355;52.882;8.430;2023-11-18T06:51:59;23.87;;;14.43;;
6638;SDS011;3355;52.882;8.430;2023-11-18T06:54:28;34.00;;;16.40;;
6638;SDS011;3355;52.882;8.430;2023-11-18T06:56:55;52.67;;;16.27;;
6638;SDS011;3355;52.882;8.430;2023-11-18T06:59:22;55.47;;;15.93;;
6638;SDS011;3355;52.882;8.430;2023-11-18T07:01:50;33.00;;;15.60;;
6638;SDS011;3355;52.882;8.430;2023-11-18T07:04:16;43.87;;;17.10;;
6638;SDS011;3355;52.882;8.430;2023-11-18T07:06:44;46.03;;;17.27;;
6638;SDS011;3355;52.882;8.430;2023-11-18T07:09:10;37.00;;;16.40;;
6638;SDS011;3355;52.882;8.430;2023-11-18T07:11:42;28.90;;;16.77;;
6638;SDS011;3355;52.882;8.430;2023-11-18T07:14:08;25.80;;;16.23;;
6638;SDS011;3355;52.882;8.430;2023-11-18T07:16:35;28.87;;;17.27;;
6638;SDS011;3355;52.882;8.430;2023-11-18T07:19:05;34.63;;;17.17;;
6638;SDS011;3355;52.882;8.430;2023-11-18T07:21:32;32.20;;;16.93;;
6638;SDS011;3355;52.882;8.430;2023-11-18T07:23:59;31.70;;;19.00;;
6638;SDS011;3355;52.882;8.430;2023-11-18T07:26:27;34.83;;;17.67;;
6638;SDS011;3355;52.882;8.430;2023-11-18T07:28:54;28.87;;;17.30;;
6638;SDS011;3355;52.882;8.430;2023-11-18T07:31:21;31.37;;;16.40;;
6638;SDS011;3355;52.882;8.430;2023-11-18T07:33:47;32.47;;;18.10;;
6638;SDS011;3355;52.882;8.430;2023-11-18T07:36:16;35.77;;;18.80;;
6638;SDS011;3355;52.882;8.430;2023-11-18T07:38:44;32.97;;;16.80;;
6638;SDS011;3355;52.882;8.430;2023-11-18T07:41:11;43.23;;;18.17;;
6638;SDS011;3355;52.882;8.430;2023-11-18T07:43:48;38.33;;;17.37;;
6638;SDS011;3355;52.882;8.430;2023-11-18T07:46:15;28.70;;;16.40;;
6638;SDS011;3355;52.882;8.430;2023-11-18T07:48:41;33.50;;;19.40;;
6638;SDS011;3355;52.882;8.430;2023-11-18T07:51:08;35.00;;;19.50;;
6638;SDS011;3355;52.882;8.430;2023-11-18T07:53:39;33.53;;;17.90;;
6638;SDS011;3355;52.882;8.430;2023-11-18T07:56:06;33.00;;;16.40;;
6638;SDS011;3355;52.882;8.430;2023-11-18T07:58:36;28.50;;;17.00;;
6638;SDS011;3355;52.882;8.430;2023-11-18T08:01:03;34.93;;;17.27;;
6638;SDS011;3355;52.882;8.430;2023-11-18T08:03:32;25.50;;;16.30;;
6638;SDS011;3355;52.882;8.430;2023-11-18T08:05:59;26.27;;;17.67;;
6638;SDS011;3355;52.882;8.430;2023-11-18T08:08:26;32.47;;;17.57;;
6638;SDS011;3355;52.882;8.430;2023-11-18T08:10:55;25.10;;;17.37;;
6638;SDS011;3355;52.882;8.430;2023-11-18T08:13:22;31.83;;;18.17;;
6638;SDS011;3355;52.882;8.430;2023-11-18T08:15:49;26.70;;;17.13;;
6638;SDS011;3355;52.882;8.430;2023-11-18T08:18:15;26.10;;;17.17;;
6638;SDS011;3355;52.882;8.430;2023-11-18T08:20:43;25.17;;;17.30;;
6638;SDS011;3355;52.882;8.430;2023-11-18T08:23:09;25.27;;;15.73;;
6638;SDS011;3355;52.882;8.430;2023-11-18T08:25:36;28.90;;;17.20;;
6638;SDS011;3355;52.882;8.430;2023-11-18T08:28:06;27.80;;;18.40;;
6638;SDS011;3355;52.882;8.430;2023-11-18T08:30:34;22.80;;;16.60;;
6638;SDS011;3355;52.882;8.430;2023-11-18T08:33:04;23.60;;;17.40;;
6638;SDS011;3355;52.882;8.430;2023-11-18T08:35:33;30.43;;;18.80;;
6638;SDS011;3355;52.882;8.430;2023-11-18T08:38:00;23.93;;;16.33;;
6638;SDS011;3355;52.882;8.430;2023-11-18T08:40:29;27.67;;;17.17;;
6638;SDS011;3355;52.882;8.430;2023-11-18T08:42:56;25.00;;;16.67;;
6638;SDS011;3355;52.882;8.430;2023-11-18T08:45:25;23.60;;;17.07;;
6638;SDS011;3355;52.882;8.430;2023-11-18T08:47:54;26.47;;;17.40;;
6638;SDS011;3355;52.882;8.430;2023-11-18T08:50:21;24.47;;;15.50;;
6638;SDS011;3355;52.882;8.430;2023-11-18T08:52:50;27.40;;;16.90;;
6638;SDS011;3355;52.882;8.430;2023-11-18T08:55:19;26.87;;;18.47;;
6638;SDS011;3355;52.882;8.430;2023-11-18T08:57:48;27.73;;;18.17;;
6638;SDS011;3355;52.882;8.430;2023-11-18T09:00:24;27.23;;;18.07;;
6638;SDS011;3355;52.882;8.430;2023-11-18T09:03:09;32.00;;;18.00;;
6638;SDS011;3355;52.882;8.430;2023-11-18T09:05:42;26.80;;;16.13;;
6638;SDS011;3355;52.882;8.430;2023-11-18T09:08:21;23.30;;;16.53;;
6638;SDS011;3355;52.882;8.430;2023-11-18T09:10:49;26.87;;;15.87;;
6638;SDS011;3355;52.882;8.430;2023-11-18T09:13:18;23.93;;;15.73;;
6638;SDS011;3355;52.882;8.430;2023-11-18T09:15:47;29.63;;;15.63;;
6638;SDS011;3355;52.882;8.430;2023-11-18T09:18:14;24.30;;;16.23;;
6638;SDS011;3355;52.882;8.430;2023-11-18T09:20:43;30.80;;;15.27;;
6638;SDS011;3355;52.882;8.430;2023-11-18T09:23:10;27.73;;;17.63;;
6638;SDS011;3355;52.882;8.430;2023-11-18T09:25:38;26.83;;;16.73;;
6638;SDS011;3355;52.882;8.430;2023-11-18T09:28:05;31.80;;;18.83;;
6638;SDS011;3355;52.882;8.430;2023-11-18T09:30:35;27.23;;;16.13;;
6638;SDS011;3355;52.882;8.430;2023-11-18T09:33:05;27.77;;;16.00;;
6638;SDS011;3355;52.882;8.430;2023-11-18T09:35:39;31.90;;;18.00;;
6638;SDS011;3355;52.882;8.430;2023-11-18T09:38:06;27.77;;;17.20;;
6638;SDS011;3355;52.882;8.430;2023-11-18T09:40:33;27.87;;;16.40;;
6638;SDS011;3355;52.882;8.430;2023-11-18T09:43:08;31.13;;;18.47;;
6638;SDS011;3355;52.882;8.430;2023-11-18T09:45:36;30.10;;;17.30;;
6638;SDS011;3355;52.882;8.430;2023-11-18T09:48:05;26.00;;;16.33;;
6638;SDS011;3355;52.882;8.430;2023-11-18T09:50:34;33.37;;;18.97;;
6638;SDS011;3355;52.882;8.430;2023-11-18T09:53:03;30.20;;;18.10;;
6638;SDS011;3355;52.882;8.430;2023-11-18T09:55:37;32.30;;;18.20;;
6638;SDS011;3355;52.882;8.430;2023-11-18T09:58:13;37.67;;;20.70;;
6638;SDS011;3355;52.882;8.430;2023-11-18T10:00:42;28.70;;;18.10;;
6638;SDS011;3355;52.882;8.430;2023-11-18T10:03:10;31.23;;;18.30;;
6638;SDS011;3355;52.882;8.430;2023-11-18T10:05:40;34.03;;;20.00;;
6638;SDS011;3355;52.882;8.430;2023-11-18T10:08:08;36.63;;;21.23;;
6638;SDS011;3355;52.882;8.430;2023-11-18T10:10:35;35.93;;;20.10;;
6638;SDS011;3355;52.882;8.430;2023-11-18T10:13:02;34.77;;;18.70;;
6638;SDS011;3355;52.882;8.430;2023-11-18T10:15:34;39.47;;;21.30;;
6638;SDS011;3355;52.882;8.430;2023-11-18T10:18:05;33.07;;;19.77;;
6638;SDS011;3355;52.882;8.430;2023-11-18T10:20:52;36.83;;;20.43;;
6638;SDS011;3355;52.882;8.430;2023-11-18T10:23:28;35.93;;;21.37;;
6638;SDS011;3355;52.882;8.430;2023-11-18T10:26:06;42.03;;;23.33;;
6638;SDS011;3355;52.882;8.430;2023-11-18T10:28:49;42.07;;;21.10;;
6638;SDS011;3355;52.882;8.430;2023-11-18T10:31:27;36.30;;;22.80;;
6638;SDS011;3355;52.882;8.430;2023-11-18T10:34:03;34.83;;;22.40;;
6638;SDS011;3355;52.882;8.430;2023-11-18T10:36:39;36.90;;;21.30;;
6638;SDS011;3355;52.882;8.430;2023-11-18T10:39:13;35.60;;;23.20;;
6638;SDS011;3355;52.882;8.430;2023-11-18T10:41:50;42.20;;;22.13;;
6638;SDS011;3355;52.882;8.430;2023-11-18T10:44:20;38.13;;;23.00;;
6638;SDS011;3355;52.882;8.430;2023-11-18T10:47:05;40.40;;;23.87;;
6638;SDS011;3355;52.882;8.430;2023-11-18T10:49:38;34.90;;;23.10;;
6638;SDS011;3355;52.882;8.430;2023-11-18T10:52:09;37.57;;;22.47;;
6638;SDS011;3355;52.882;8.430;2023-11-18T10:54:51;38.40;;;23.10;;
6638;SDS011;3355;52.882;8.430;2023-11-18T10:57:30;36.63;;;22.80;;
6638;SDS011;3355;52.882;8.430;2023-11-18T11:00:35;36.57;;;21.47;;
6638;SDS011;3355;52.882;8.430;2023-11-18T11:03:17;35.03;;;21.43;;
6638;SDS011;3355;52.882;8.430;2023-11-18T11:05:49;40.00;;;22.30;;
6638;SDS011;3355;52.882;8.430;2023-11-18T11:08:51;37.10;;;21.70;;
6638;SDS011;3355;52.882;8.430;2023-11-18T11:11:31;39.77;;;23.30;;
6638;SDS011;3355;52.882;8.430;2023-11-18T11:14:12;40.27;;;23.37;;
6638;SDS011;3355;52.882;8.430;2023-11-18T11:16:51;41.03;;;23.53;;
6638;SDS011;3355;52.882;8.430;2023-11-18T11:19:38;42.50;;;22.10;;
6638;SDS011;3355;52.882;8.430;2023-11-18T11:22:33;39.90;;;22.00;;
6638;SDS011;3355;52.882;8.430;2023-11-18T11:25:41;37.80;;;21.53;;
6638;SDS011;3355;52.882;8.430;2023-11-18T11:28:19;34.30;;;18.80;;
6638;SDS011;3355;52.882;8.430;2023-11-18T11:31:12;37.20;;;21.00;;
6638;SDS011;3355;52.882;8.430;2023-11-18T11:33:49;33.03;;;20.90;;
6638;SDS011;3355;52.882;8.430;2023-11-18T11:36:30;31.47;;;20.30;;
6638;SDS011;3355;52.882;8.430;2023-11-18T11:39:35;32.57;;;19.00;;
6638;SDS011;3355;52.882;8.430;2023-11-18T11:45:46;38.47;;;21.90;;
6638;SDS011;3355;52.882;8.430;2023-11-18T11:48:35;35.90;;;19.97;;
6638;SDS011;3355;52.882;8.430;2023-11-18T11:54:09;29.07;;;19.53;;
6638;SDS011;3355;52.882;8.430;2023-11-18T11:57:01;30.07;;;19.83;;
6638;SDS011;3355;52.882;8.430;2023-11-18T11:59:54;29.03;;;18.57;;
6638;SDS011;3355;52.882;8.430;2023-11-18T12:02:38;31.20;;;19.77;;
6638;SDS011;3355;52.882;8.430;2023-11-18T12:05:23;31.53;;;20.70;;
6638;SDS011;3355;52.882;8.430;2023-11-18T12:08:15;30.23;;;18.83;;
6638;SDS011;3355;52.882;8.430;2023-11-18T12:10:56;29.77;;;18.17;;
6638;SDS011;3355;52.882;8.430;2023-11-18T12:13:24;32.63;;;18.00;;
6638;SDS011;3355;52.882;8.430;2023-11-18T12:16:01;39.73;;;19.07;;
6638;SDS011;3355;52.882;8.430;2023-11-18T12:22:14;31.20;;;18.10;;
6638;SDS011;3355;52.882;8.430;2023-11-18T12:24:46;26.40;;;17.33;;
6638;SDS011;3355;52.882;8.430;2023-11-18T12:28:06;23.70;;;17.90;;
6638;SDS011;3355;52.882;8.430;2023-11-18T12:30:48;25.73;;;16.83;;
6638;SDS011;3355;52.882;8.430;2023-11-18T12:33:22;29.77;;;18.27;;
6638;SDS011;3355;52.882;8.430;2023-11-18T12:43:04;28.47;;;15.40;;
6638;SDS011;3355;52.882;8.430;2023-11-18T12:48:45;22.43;;;15.87;;
6638;SDS011;3355;52.882;8.430;2023-11-18T12:51:20;25.30;;;16.07;;
6638;SDS011;3355;52.882;8.430;2023-11-18T12:53:57;22.83;;;15.10;;
6638;SDS011;3355;52.882;8.430;2023-11-18T12:56:42;27.10;;;15.50;;
6638;SDS011;3355;52.882;8.430;2023-11-18T12:59:22;23.10;;;15.80;;
6638;SDS011;3355;52.882;8.430;2023-11-18T13:01:57;22.77;;;15.10;;
6638;SDS011;3355;52.882;8.430;2023-11-18T13:04:29;21.33;;;14.60;;
6638;SDS011;3355;52.882;8.430;2023-11-18T13:07:10;25.40;;;13.90;;
6638;SDS011;3355;52.882;8.430;2023-11-18T13:09:39;29.43;;;15.77;;
6638;SDS011;3355;52.882;8.430;2023-11-18T13:12:09;19.40;;;13.33;;
6638;SDS011;3355;52.882;8.430;2023-11-18T13:14:42;20.87;;;12.67;;
6638;SDS011;3355;52.882;8.430;2023-11-18T13:17:13;21.63;;;14.23;;
6638;SDS011;3355;52.882;8.430;2023-11-18T13:19:42;17.93;;;11.87;;
6638;SDS011;3355;52.882;8.430;2023-11-18T13:22:15;24.40;;;14.50;;
6638;SDS011;3355;52.882;8.430;2023-11-18T13:24:51;20.50;;;13.80;;
6638;SDS011;3355;52.882;8.430;2023-11-18T13:27:32;22.73;;;13.70;;
6638;SDS011;3355;52.882;8.430;2023-11-18T13:30:08;20.57;;;13.30;;
6638;SDS011;3355;52.882;8.430;2023-11-18T13:32:40;24.50;;;13.40;;
6638;SDS011;3355;52.882;8.430;2023-11-18T13:35:08;19.60;;;12.20;;
6638;SDS011;3355;52.882;8.430;2023-11-18T13:37:45;19.10;;;11.40;;
6638;SDS011;3355;52.882;8.430;2023-11-18T13:40:20;18.67;;;11.57;;
6638;SDS011;3355;52.882;8.430;2023-11-18T13:43:03;23.00;;;12.93;;
6638;SDS011;3355;52.882;8.430;2023-11-18T13:45:39;18.50;;;12.10;;
6638;SDS011;3355;52.882;8.430;2023-11-18T13:48:24;22.93;;;14.60;;
6638;SDS011;3355;52.882;8.430;2023-11-18T13:51:07;18.70;;;11.93;;
6638;SDS011;3355;52.882;8.430;2023-11-18T13:53:45;18.60;;;11.73;;
6638;SDS011;3355;52.882;8.430;2023-11-18T13:56:21;20.50;;;13.63;;
6638;SDS011;3355;52.882;8.430;2023-11-18T13:59:13;21.10;;;13.00;;
6638;SDS011;3355;52.882;8.430;2023-11-18T14:01:46;17.33;;;11.87;;
6638;SDS011;3355;52.882;8.430;2023-11-18T14:04:34;19.47;;;12.63;;
6638;SDS011;3355;52.882;8.430;2023-11-18T14:07:03;18.93;;;11.93;;
6638;SDS011;3355;52.882;8.430;2023-11-18T14:09:34;17.00;;;11.50;;
6638;SDS011;3355;52.882;8.430;2023-11-18T14:12:08;17.20;;;11.07;;
6638;SDS011;3355;52.882;8.430;2023-11-18T14:14:57;16.67;;;11.00;;
6638;SDS011;3355;52.882;8.430;2023-11-18T14:17:29;18.67;;;10.63;;
6638;SDS011;3355;52.882;8.430;2023-11-18T14:20:26;17.63;;;11.30;;
6638;SDS011;3355;52.882;8.430;2023-11-18T14:22:57;16.93;;;10.30;;
6638;SDS011;3355;52.882;8.430;2023-11-18T14:25:27;18.20;;;11.77;;
6638;SDS011;3355;52.882;8.430;2023-11-18T14:27:55;19.80;;;11.40;;
6638;SDS011;3355;52.882;8.430;2023-11-18T14:30:24;18.17;;;10.70;;
6638;SDS011;3355;52.882;8.430;2023-11-18T14:32:56;17.53;;;10.37;;
6638;SDS011;3355;52.882;8.430;2023-11-18T14:35:24;15.60;;;10.10;;
6638;SDS011;3355;52.882;8.430;2023-11-18T14:37:54;12.80;;;9.23;;
6638;SDS011;3355;52.882;8.430;2023-11-18T14:40:23;15.33;;;10.47;;
6638;SDS011;3355;52.882;8.430;2023-11-18T14:42:58;11.60;;;9.13;;
6638;SDS011;3355;52.882;8.430;2023-11-18T14:45:40;13.63;;;9.87;;
6638;SDS011;3355;52.882;8.430;2023-11-18T14:48:12;13.87;;;9.20;;
6638;SDS011;3355;52.882;8.430;2023-11-18T14:50:40;12.60;;;9.50;;
6638;SDS011;3355;52.882;8.430;2023-11-18T14:53:08;15.23;;;10.80;;
6638;SDS011;3355;52.882;8.430;2023-11-18T14:55:35;11.10;;;9.67;;
6638;SDS011;3355;52.882;8.430;2023-11-18T14:58:04;11.77;;;9.00;;
6638;SDS011;3355;52.882;8.430;2023-11-18T15:00:37;14.83;;;9.57;;
6638;SDS011;3355;52.882;8.430;2023-11-18T15:03:05;15.17;;;9.37;;
6638;SDS011;3355;52.882;8.430;2023-11-18T15:05:37;10.27;;;8.03;;
6638;SDS011;3355;52.882;8.430;2023-11-18T15:08:09;14.33;;;8.83;;
6638;SDS011;3355;52.882;8.430;2023-11-18T15:10:46;13.13;;;9.70;;
6638;SDS011;3355;52.882;8.430;2023-11-18T15:13:23;16.20;;;8.63;;
6638;SDS011;3355;52.882;8.430;2023-11-18T15:15:52;13.63;;;10.40;;
6638;SDS011;3355;52.882;8.430;2023-11-18T15:18:29;13.40;;;10.43;;
6638;SDS011;3355;52.882;8.430;2023-11-18T15:21:08;11.07;;;8.70;;
6638;SDS011;3355;52.882;8.430;2023-11-18T15:23:51;11.80;;;9.27;;
6638;SDS011;3355;52.882;8.430;2023-11-18T15:26:17;14.40;;;9.33;;
6638;SDS011;3355;52.882;8.430;2023-11-18T15:28:44;12.73;;;8.90;;
6638;SDS011;3355;52.882;8.430;2023-11-18T15:31:11;12.63;;;8.87;;
6638;SDS011;3355;52.882;8.430;2023-11-18T15:33:39;12.13;;;8.67;;